Time;durP1;ratioP1;P1;durP2;ratioP2;P2;SDS_P1;SDS_P2;PMS_P1;PMS_P2;Temp;Humidity;BMP_temperature;BMP_pressure;BME280_temperature;BME280_humidity;BME280_pressure;Samples;Min_cycle;Max_cycle;Signal;HPM_P1;HPM_P2
2022/12/26 00:00:58;;;;;;;6.83;3.53;;;11.10;99.90;;;;;;5017364;28;20472;-81
2022/12/26 00:03:25;;;;;;;3.67;3.10;;;11.10;99.90;;;;;;5033142;28;20471;-81
2022/12/26 00:05:53;;;;;;;5.97;3.40;;;11.10;99.90;;;;;;5033918;28;20475;-81
2022/12/26 00:08:19;;;;;;;3.80;3.40;;;11.10;99.90;;;;;;5017414;28;20549;-81
2022/12/26 00:10:46;;;;;;;4.43;3.13;;;11.20;99.90;;;;;;5014937;28;20554;-80
2022/12/26 00:13:13;;;;;;;5.43;3.90;;;11.20;99.90;;;;;;5034102;28;20483;-81
2022/12/26 00:15:40;;;;;;;7.40;4.43;;;11.10;99.90;;;;;;5034672;28;20522;-82
2022/12/26 00:18:07;;;;;;;4.90;3.23;;;11.10;99.90;;;;;;5031876;28;20951;-80
2022/12/26 00:20:34;;;;;;;5.40;4.57;;;11.10;99.90;;;;;;5014578;28;20489;-79
2022/12/26 00:23:02;;;;;;;5.77;4.33;;;11.10;99.90;;;;;;5019967;28;20455;-80
2022/12/26 00:25:29;;;;;;;5.50;4.40;;;11.10;99.90;;;;;;5026908;28;20457;-78
2022/12/26 00:27:57;;;;;;;5.93;4.27;;;11.10;99.90;;;;;;5031059;28;20454;-79
2022/12/26 00:30:24;;;;;;;5.63;4.17;;;11.10;99.90;;;;;;5031270;28;20471;-79
2022/12/26 00:32:51;;;;;;;5.20;4.13;;;11.00;99.90;;;;;;5020143;28;20468;-79
2022/12/26 00:35:18;;;;;;;9.03;5.07;;;11.00;99.90;;;;;;5028947;28;20466;-79
2022/12/26 00:37:44;;;;;;;6.23;4.20;;;11.10;99.90;;;;;;5036725;28;21004;-79
2022/12/26 00:40:13;;;;;;;5.13;4.63;;;11.00;99.90;;;;;;5025885;28;21007;-81
2022/12/26 00:42:40;;;;;;;5.53;4.60;;;11.00;99.90;;;;;;5037221;28;20537;-80
2022/12/26 00:45:07;;;;;;;5.97;3.80;;;11.10;99.90;;;;;;5026897;28;20889;-79
2022/12/26 00:47:34;;;;;;;7.90;4.70;;;11.10;99.90;;;;;;5034895;28;20478;-79
2022/12/26 00:50:01;;;;;;;5.07;3.90;;;11.00;99.90;;;;;;5038271;28;20474;-79
2022/12/26 00:52:28;;;;;;;7.10;4.63;;;11.10;99.90;;;;;;5025679;28;20492;-81
2022/12/26 00:54:55;;;;;;;4.37;3.80;;;11.10;99.90;;;;;;5019798;28;20527;-81
2022/12/26 00:57:23;;;;;;;6.00;4.20;;;11.10;99.90;;;;;;5044637;28;20463;-78
2022/12/26 00:59:50;;;;;;;4.97;4.20;;;11.20;99.90;;;;;;5034574;28;20472;-82
2022/12/26 01:05:01;;;;;;;4.40;3.07;;;11.10;99.90;;;;;;5019744;28;20436;-81
2022/12/26 01:07:27;;;;;;;4.00;3.23;;;11.10;99.90;;;;;;5019775;28;20466;-81
2022/12/26 01:09:54;;;;;;;5.33;3.40;;;11.10;99.90;;;;;;5020940;28;20544;-80
2022/12/26 01:12:22;;;;;;;4.63;3.60;;;11.10;99.90;;;;;;5017812;28;20463;-81
2022/12/26 01:14:49;;;;;;;3.87;2.90;;;11.10;99.90;;;;;;5029657;28;20534;-81
2022/12/26 01:17:16;;;;;;;4.50;3.47;;;11.10;99.90;;;;;;5036518;28;21035;-80
2022/12/26 01:19:43;;;;;;;3.73;2.87;;;11.10;99.90;;;;;;5031845;28;20484;-81
2022/12/26 01:22:10;;;;;;;3.77;2.50;;;11.10;99.90;;;;;;5043929;22;20582;-79
2022/12/26 01:24:36;;;;;;;5.50;2.53;;;11.10;99.90;;;;;;5016854;28;20511;-79
2022/12/26 01:27:03;;;;;;;3.57;2.50;;;11.00;99.90;;;;;;5018017;28;20546;-80
2022/12/26 01:29:31;;;;;;;2.37;2.07;;;11.00;99.90;;;;;;5012318;28;20457;-80
2022/12/26 01:31:58;;;;;;;2.70;2.10;;;11.00;99.90;;;;;;5008081;28;20572;-80
2022/12/26 01:34:25;;;;;;;2.33;1.97;;;11.00;99.90;;;;;;5008439;28;20921;-79
2022/12/26 01:36:52;;;;;;;3.10;2.10;;;11.10;99.90;;;;;;4999836;28;20542;-80
2022/12/26 01:39:19;;;;;;;7.93;2.60;;;11.10;99.90;;;;;;5009854;28;20540;-82
2022/12/26 01:41:46;;;;;;;4.63;2.80;;;11.10;99.90;;;;;;5018449;28;20473;-81
2022/12/26 01:44:46;;;;;;;3.60;3.27;;;11.00;99.90;;;;;;5018939;28;20511;-81
2022/12/26 01:47:15;;;;;;;3.60;2.87;;;11.00;99.90;;;;;;5002022;28;20517;-79
2022/12/26 01:49:44;;;;;;;7.80;3.40;;;11.00;99.90;;;;;;5001097;28;20446;-79
2022/12/26 01:52:23;;;;;;;6.13;4.03;;;11.00;99.90;;;;;;5000540;28;20477;-80
2022/12/26 01:54:53;;;;;;;8.10;5.27;;;11.00;99.90;;;;;;4999520;28;20462;-80
2022/12/26 01:57:23;;;;;;;11.17;6.33;;;11.00;99.90;;;;;;4999915;28;20540;-77
2022/12/26 01:59:51;;;;;;;8.73;5.50;;;11.00;99.90;;;;;;4998211;28;20480;-81
2022/12/26 02:02:21;;;;;;;8.53;5.47;;;11.00;99.90;;;;;;5000070;28;20488;-80
2022/12/26 02:07:33;;;;;;;13.47;6.70;;;11.10;99.90;;;;;;4991286;28;20528;-79
2022/12/26 02:10:00;;;;;;;10.57;6.67;;;11.10;99.90;;;;;;5000448;28;20445;-80
2022/12/26 02:12:30;;;;;;;10.80;7.30;;;11.10;99.90;;;;;;5000126;28;20475;-82
2022/12/26 02:14:58;;;;;;;10.17;6.17;;;11.10;99.90;;;;;;4999790;28;20458;-82
2022/12/26 02:17:27;;;;;;;8.63;6.50;;;11.10;99.90;;;;;;4999396;28;20441;-80
2022/12/26 02:20:00;;;;;;;8.60;6.70;;;11.00;99.90;;;;;;5002903;28;20495;-80
2022/12/26 02:23:03;;;;;;;8.40;5.70;;;11.10;99.90;;;;;;5003061;28;20494;-81
2022/12/26 02:26:17;;;;;;;8.13;5.40;;;11.10;99.90;;;;;;5003793;28;20460;-82
2022/12/26 02:29:09;;;;;;;11.00;6.50;;;11.10;99.90;;;;;;4990994;28;20464;-79
2022/12/26 02:31:45;;;;;;;9.80;6.37;;;11.10;99.90;;;;;;5002874;28;21130;-79
2022/12/26 02:34:16;;;;;;;11.80;6.37;;;11.10;99.90;;;;;;5003509;28;20454;-80
2022/12/26 02:36:59;;;;;;;9.77;6.97;;;11.10;99.90;;;;;;5003103;28;20471;-81
2022/12/26 02:39:41;;;;;;;8.03;4.30;;;11.00;99.90;;;;;;5001953;28;20482;-80
2022/12/26 02:42:20;;;;;;;6.10;3.90;;;11.10;99.90;;;;;;4995849;28;20489;-80
2022/12/26 02:47:50;;;;;;;5.57;3.57;;;11.10;99.90;;;;;;5002539;28;20494;-80
2022/12/26 03:13:13;;;;;;;7.23;5.53;;;11.00;99.90;;;;;;5002850;28;20536;-79
2022/12/26 03:18:34;;;;;;;4.93;4.43;;;11.00;99.90;;;;;;5000987;28;20552;-78
2022/12/26 03:21:03;;;;;;;5.60;4.37;;;11.00;99.90;;;;;;5003213;28;20463;-79
2022/12/26 03:23:31;;;;;;;5.33;4.33;;;11.00;99.90;;;;;;5004324;28;20520;-79
2022/12/26 03:28:47;;;;;;;5.90;4.50;;;11.00;99.90;;;;;;4997736;28;20829;-79
2022/12/26 03:31:15;;;;;;;5.03;4.13;;;10.90;99.90;;;;;;5008548;28;20461;-82
2022/12/26 03:36:40;;;;;;;4.80;3.90;;;10.90;99.90;;;;;;5004133;28;20481;-78
2022/12/26 03:39:16;;;;;;;6.30;4.90;;;10.90;99.90;;;;;;5002741;28;20550;-78
2022/12/26 04:19:26;;;;;;;5.30;4.77;;;10.80;99.90;;;;;;5007302;28;20493;-79
2022/12/26 04:44:27;;;;;;;7.10;6.23;;;10.30;99.90;;;;;;5006541;28;20431;-80
2022/12/26 04:46:55;;;;;;;6.67;5.97;;;10.30;99.90;;;;;;5006707;28;20460;-80
2022/12/26 04:52:09;;;;;;;7.53;6.10;;;10.20;99.90;;;;;;5009108;28;21114;-80
2022/12/26 04:54:36;;;;;;;7.47;6.80;;;10.20;99.90;;;;;;5008837;28;20455;-80
2022/12/26 04:57:03;;;;;;;7.37;5.90;;;10.30;99.90;;;;;;5009006;28;20830;-78
2022/12/26 04:59:32;;;;;;;10.63;7.43;;;10.20;99.90;;;;;;5006681;28;20494;-80
2022/12/26 05:10:21;;;;;;;8.73;7.83;;;10.30;99.90;;;;;;5009883;28;20915;-80
2022/12/26 05:12:47;;;;;;;11.07;7.47;;;10.30;99.90;;;;;;5009200;28;20479;-80
2022/12/26 05:15:16;;;;;;;11.40;7.73;;;10.30;99.90;;;;;;5008695;28;20509;-81
2022/12/26 05:28:54;;;;;;;5.93;4.60;;;10.20;99.90;;;;;;4999475;28;20453;-82
2022/12/26 05:31:23;;;;;;;5.63;5.10;;;10.10;99.90;;;;;;5000818;28;20467;-82
2022/12/26 05:34:06;;;;;;;6.53;4.97;;;10.10;99.90;;;;;;5000158;28;20538;-82
2022/12/26 05:36:37;;;;;;;6.37;4.87;;;10.10;99.90;;;;;;4998460;28;20663;-81
2022/12/26 05:39:05;;;;;;;6.63;5.23;;;10.10;99.90;;;;;;5001425;28;21031;-82
2022/12/26 05:41:31;;;;;;;4.87;4.20;;;10.00;99.90;;;;;;5017885;28;20519;-81
2022/12/26 05:43:58;;;;;;;5.93;4.43;;;10.00;99.90;;;;;;5006395;28;20444;-82
2022/12/26 05:46:26;;;;;;;5.20;4.30;;;10.00;99.90;;;;;;4991665;28;20650;-82
2022/12/26 05:48:53;;;;;;;6.20;5.07;;;10.00;99.90;;;;;;4993689;28;20449;-82
2022/12/26 05:51:20;;;;;;;7.53;5.30;;;10.00;99.90;;;;;;4999204;28;20476;-82
2022/12/26 05:53:48;;;;;;;8.33;4.83;;;10.00;99.90;;;;;;4999717;28;21052;-82
2022/12/26 05:56:16;;;;;;;6.90;4.03;;;9.90;99.90;;;;;;4997227;28;20483;-82
2022/12/26 05:58:43;;;;;;;6.13;3.90;;;10.00;99.90;;;;;;4997828;28;20909;-82
2022/12/26 06:01:13;;;;;;;5.57;4.13;;;10.00;99.90;;;;;;4997734;28;20455;-81
2022/12/26 06:03:43;;;;;;;3.93;3.40;;;10.00;99.90;;;;;;4998412;28;20485;-81
2022/12/26 06:06:10;;;;;;;6.80;4.10;;;10.00;99.90;;;;;;4998819;28;20453;-82
2022/12/26 06:08:37;;;;;;;5.17;3.83;;;9.90;99.90;;;;;;4997708;28;20448;-82
2022/12/26 06:11:06;;;;;;;4.80;3.70;;;9.90;99.90;;;;;;4997723;28;20467;-81
2022/12/26 06:13:33;;;;;;;3.80;3.27;;;9.90;99.90;;;;;;4991142;28;20453;-81
2022/12/26 06:16:03;;;;;;;7.63;4.20;;;9.90;99.90;;;;;;4998142;28;20836;-82
2022/12/26 06:18:30;;;;;;;4.50;3.83;;;9.90;99.90;;;;;;4997610;28;20981;-82
2022/12/26 06:20:58;;;;;;;6.60;4.37;;;9.90;99.90;;;;;;4991577;28;20470;-81
2022/12/26 06:23:25;;;;;;;6.93;3.77;;;9.90;99.90;;;;;;4997879;28;20449;-82
2022/12/26 06:25:55;;;;;;;6.43;4.93;;;9.80;99.90;;;;;;4997760;28;20460;-82
2022/12/26 06:28:23;;;;;;;6.17;4.10;;;9.90;99.90;;;;;;4996555;28;20445;-82
2022/12/26 06:30:50;;;;;;;6.50;5.43;;;9.90;99.90;;;;;;4997859;28;20464;-82
2022/12/26 06:33:17;;;;;;;8.07;5.20;;;9.90;99.90;;;;;;4993171;28;20469;-82
2022/12/26 06:35:43;;;;;;;6.27;4.57;;;9.90;99.90;;;;;;4997322;28;20461;-81
2022/12/26 06:38:12;;;;;;;8.27;4.53;;;9.90;99.90;;;;;;4996036;28;20455;-82
2022/12/26 06:40:40;;;;;;;5.17;4.13;;;9.90;99.90;;;;;;4997112;28;21025;-82
2022/12/26 06:43:07;;;;;;;6.20;4.47;;;9.90;99.90;;;;;;4996418;28;20834;-82
2022/12/26 06:45:34;;;;;;;7.67;3.93;;;9.80;99.90;;;;;;4996967;28;20456;-80
2022/12/26 06:48:00;;;;;;;4.80;4.20;;;9.90;99.90;;;;;;4998746;28;20451;-79
2022/12/26 06:50:27;;;;;;;7.30;4.80;;;9.90;99.90;;;;;;4992666;28;20520;-79
2022/12/26 06:52:54;;;;;;;9.27;4.80;;;10.00;99.90;;;;;;5007723;28;20515;-79
2022/12/26 06:55:22;;;;;;;4.23;3.10;;;10.00;99.90;;;;;;4991656;28;20485;-79
2022/12/26 06:57:52;;;;;;;5.90;3.83;;;10.00;99.90;;;;;;5006767;28;20471;-78
2022/12/26 07:00:19;;;;;;;5.30;3.93;;;10.10;99.90;;;;;;5008384;28;20473;-79
2022/12/26 07:02:50;;;;;;;5.90;4.93;;;10.10;99.90;;;;;;5006118;28;20478;-79
2022/12/26 07:05:17;;;;;;;5.00;4.17;;;10.10;99.90;;;;;;5007613;28;20448;-78
2022/12/26 07:07:43;;;;;;;5.83;4.30;;;10.10;99.90;;;;;;5007813;28;20498;-79
2022/12/26 07:10:10;;;;;;;5.10;4.07;;;10.10;99.90;;;;;;5006688;28;20462;-79
2022/12/26 07:12:39;;;;;;;5.63;4.20;;;10.10;99.90;;;;;;5007138;28;20464;-79
2022/12/26 07:15:08;;;;;;;5.80;4.60;;;10.20;99.90;;;;;;4999161;28;20551;-80
2022/12/26 07:17:35;;;;;;;7.57;4.33;;;10.20;99.90;;;;;;4993668;28;20481;-80
2022/12/26 07:20:02;;;;;;;6.53;4.50;;;10.20;99.90;;;;;;4995764;28;20499;-80
2022/12/26 07:22:29;;;;;;;5.50;4.30;;;10.30;99.90;;;;;;5029774;22;20501;-81
2022/12/26 07:24:56;;;;;;;5.50;4.57;;;10.30;99.90;;;;;;5032692;28;20989;-81
2022/12/26 07:27:23;;;;;;;4.83;3.50;;;10.30;99.90;;;;;;5035943;28;20452;-82
2022/12/26 07:29:51;;;;;;;5.20;3.87;;;10.30;99.90;;;;;;5037266;28;20454;-81
2022/12/26 07:32:19;;;;;;;5.77;4.50;;;10.30;99.90;;;;;;5036962;28;20471;-80
2022/12/26 07:34:46;;;;;;;5.13;4.00;;;10.40;99.90;;;;;;5037885;28;20554;-81
2022/12/26 07:37:13;;;;;;;4.37;3.30;;;10.40;99.90;;;;;;5032214;28;20535;-81
2022/12/26 07:39:39;;;;;;;3.83;3.20;;;10.40;99.90;;;;;;5019366;28;20475;-80
2022/12/26 07:42:06;;;;;;;7.90;3.63;;;10.40;99.90;;;;;;5031761;28;20890;-80
2022/12/26 07:44:33;;;;;;;5.00;3.00;;;10.40;99.90;;;;;;5028200;28;20885;-80
2022/12/26 07:47:02;;;;;;;6.83;3.50;;;10.40;99.90;;;;;;5022250;28;20542;-81
2022/12/26 07:49:29;;;;;;;4.70;3.33;;;10.50;99.90;;;;;;5025976;28;20454;-81
2022/12/26 07:51:55;;;;;;;5.57;3.40;;;10.40;99.90;;;;;;5030670;28;20518;-81
2022/12/26 07:54:22;;;;;;;8.07;4.77;;;10.40;99.90;;;;;;5031792;28;20547;-82
2022/12/26 07:56:49;;;;;;;4.67;4.03;;;10.40;99.90;;;;;;5028794;28;20483;-82
2022/12/26 07:59:17;;;;;;;6.20;4.40;;;10.40;99.90;;;;;;5029746;28;22422;-81
2022/12/26 08:01:44;;;;;;;5.77;4.70;;;10.40;99.90;;;;;;5023283;28;20551;-83
2022/12/26 08:04:13;;;;;;;10.53;5.00;;;10.40;99.90;;;;;;5034449;28;20528;-83
2022/12/26 08:06:40;;;;;;;4.40;3.73;;;10.40;99.90;;;;;;5024287;28;20462;-80
2022/12/26 08:09:07;;;;;;;6.70;3.90;;;10.40;99.90;;;;;;5024412;28;20554;-81
2022/12/26 08:11:35;;;;;;;4.60;3.17;;;10.40;99.90;;;;;;5030919;28;20535;-81
2022/12/26 08:14:02;;;;;;;5.83;4.60;;;10.40;99.90;;;;;;5032529;28;20471;-80
2022/12/26 08:16:30;;;;;;;4.90;3.50;;;10.50;99.90;;;;;;5028607;28;20983;-82
2022/12/26 08:18:56;;;;;;;4.07;3.20;;;10.60;99.90;;;;;;5026519;28;20455;-81
2022/12/26 08:21:25;;;;;;;3.97;3.37;;;10.60;99.90;;;;;;5032504;28;20487;-82
2022/12/26 08:23:51;;;;;;;4.20;2.80;;;10.60;99.90;;;;;;5035275;28;20491;-81
2022/12/26 08:26:22;;;;;;;3.47;3.10;;;10.60;99.90;;;;;;5028243;28;20572;-82
2022/12/26 08:28:49;;;;;;;3.80;2.47;;;10.70;99.90;;;;;;5034250;28;20466;-81
2022/12/26 08:31:18;;;;;;;3.60;2.80;;;10.70;99.90;;;;;;5035410;28;20472;-80
2022/12/26 08:33:45;;;;;;;2.53;2.20;;;10.70;99.90;;;;;;5024548;28;20488;-81
2022/12/26 08:36:15;;;;;;;3.07;1.97;;;10.80;99.90;;;;;;5028453;28;20447;-80
2022/12/26 08:38:43;;;;;;;2.90;2.20;;;10.80;99.90;;;;;;5032512;28;20451;-81
2022/12/26 08:41:10;;;;;;;3.10;2.03;;;10.80;99.90;;;;;;5034401;28;20491;-81
2022/12/26 08:43:38;;;;;;;5.30;2.87;;;10.80;99.90;;;;;;5035980;28;20480;-82
2022/12/26 08:46:07;;;;;;;2.90;2.00;;;10.80;99.90;;;;;;5035521;28;20542;-81
2022/12/26 08:48:34;;;;;;;11.57;7.80;;;10.80;99.90;;;;;;5033844;28;20457;-80
2022/12/26 08:51:05;;;;;;;3.03;1.87;;;10.80;99.90;;;;;;5036022;28;20537;-81
2022/12/26 08:53:34;;;;;;;3.10;1.63;;;10.80;99.90;;;;;;5021204;28;20483;-82
2022/12/26 08:56:03;;;;;;;4.53;2.50;;;10.80;99.90;;;;;;5032080;28;20470;-81
2022/12/26 08:58:31;;;;;;;2.03;1.50;;;10.90;99.90;;;;;;5016572;28;20449;-81
2022/12/26 09:01:06;;;;;;;2.23;1.60;;;10.90;99.90;;;;;;5029576;28;20580;-81
2022/12/26 09:03:33;;;;;;;3.50;1.50;;;10.90;99.90;;;;;;5039200;28;20478;-81
2022/12/26 09:06:00;;;;;;;2.63;1.60;;;10.90;99.90;;;;;;5030450;28;20461;-80
2022/12/26 09:08:29;;;;;;;3.33;1.60;;;10.90;99.90;;;;;;5034827;28;20936;-80
2022/12/26 09:10:55;;;;;;;2.97;1.50;;;10.90;99.90;;;;;;5031954;28;20451;-80
2022/12/26 09:13:24;;;;;;;2.97;1.80;;;10.80;99.90;;;;;;5029252;28;20515;-80
2022/12/26 09:15:50;;;;;;;5.00;1.00;;;10.80;99.90;;;;;;5019105;28;20483;-80
2022/12/26 09:18:19;;;;;;;2.40;1.43;;;10.80;99.90;;;;;;5021407;28;20545;-79
2022/12/26 09:20:45;;;;;;;2.57;1.20;;;10.70;99.90;;;;;;5023536;28;20475;-82
2022/12/26 09:23:14;;;;;;;3.20;1.13;;;10.70;99.90;;;;;;5026657;28;20495;-79
2022/12/26 09:25:41;;;;;;;2.77;1.33;;;10.60;99.90;;;;;;5019022;28;20460;-78
2022/12/26 09:28:07;;;;;;;3.20;1.20;;;10.70;99.90;;;;;;5023764;28;21491;-81
2022/12/26 09:30:37;;;;;;;2.00;1.10;;;10.60;99.90;;;;;;5033148;28;20450;-80
2022/12/26 09:33:06;;;;;;;1.70;1.00;;;10.70;99.90;;;;;;5028603;28;20562;-80
2022/12/26 09:35:33;;;;;;;1.70;1.00;;;10.70;99.90;;;;;;5027465;28;20549;-80
2022/12/26 09:38:00;;;;;;;2.33;1.00;;;10.80;99.90;;;;;;5034913;28;20454;-78
2022/12/26 09:40:33;;;;;;;2.97;0.90;;;10.80;99.90;;;;;;5034721;28;20491;-81
2022/12/26 09:43:10;;;;;;;1.83;1.10;;;10.90;99.90;;;;;;5030135;28;20573;-82
2022/12/26 09:45:54;;;;;;;1.90;0.97;;;10.90;99.90;;;;;;5030250;28;20451;-81
2022/12/26 09:48:27;;;;;;;1.77;0.80;;;11.00;99.90;;;;;;5031363;28;20463;-81
2022/12/26 09:50:54;;;;;;;3.40;1.30;;;11.00;99.90;;;;;;5024993;28;20835;-80
2022/12/26 09:53:29;;;;;;;4.37;1.20;;;11.10;99.90;;;;;;5029130;28;20562;-79
2022/12/26 09:55:59;;;;;;;2.80;0.80;;;11.30;99.90;;;;;;5029920;28;20488;-79
2022/12/26 09:58:29;;;;;;;2.30;0.80;;;11.20;99.90;;;;;;5027820;28;20984;-79
2022/12/26 10:01:14;;;;;;;2.40;1.03;;;11.20;99.90;;;;;;5026931;28;20491;-79
2022/12/26 10:03:44;;;;;;;2.50;1.00;;;11.20;99.90;;;;;;5038312;28;20695;-77
2022/12/26 10:06:14;;;;;;;1.90;1.33;;;11.30;99.90;;;;;;5042700;28;20450;-80
2022/12/26 10:09:12;;;;;;;2.40;1.00;;;11.30;99.90;;;;;;5030252;28;20471;-80
2022/12/26 10:11:53;;;;;;;2.20;1.10;;;11.20;99.90;;;;;;5029037;28;20455;-81
2022/12/26 10:14:28;;;;;;;2.30;1.00;;;11.40;99.90;;;;;;5025746;28;20463;-80
2022/12/26 10:17:01;;;;;;;3.00;1.20;;;11.50;99.90;;;;;;5031430;28;20444;-81
2022/12/26 10:19:39;;;;;;;2.20;1.10;;;11.40;99.90;;;;;;5025903;28;20506;-80
2022/12/26 10:22:22;;;;;;;5.40;1.17;;;11.50;99.90;;;;;;5025307;28;20550;-79
2022/12/26 10:24:50;;;;;;;1.80;1.00;;;11.60;99.90;;;;;;5027430;28;20466;-81
2022/12/26 10:27:18;;;;;;;2.40;0.90;;;11.80;99.90;;;;;;5029773;28;20470;-80
2022/12/26 10:29:52;;;;;;;3.60;1.00;;;11.70;99.90;;;;;;5029815;28;21048;-79
2022/12/26 10:32:26;;;;;;;4.07;0.90;;;11.60;99.90;;;;;;5028781;28;20468;-81
2022/12/26 10:34:53;;;;;;;6.47;1.00;;;11.60;99.90;;;;;;5020098;28;20820;-81
2022/12/26 10:37:26;;;;;;;2.13;0.93;;;11.80;99.90;;;;;;5030125;28;20458;-79
2022/12/26 10:39:56;;;;;;;4.43;0.90;;;12.00;99.90;;;;;;5027419;28;20456;-81
2022/12/26 10:42:29;;;;;;;1.90;0.83;;;12.10;99.90;;;;;;5029752;28;20568;-81
2022/12/26 10:44:56;;;;;;;4.50;1.67;;;11.90;99.90;;;;;;5024090;28;20467;-80
2022/12/26 10:47:27;;;;;;;2.47;1.03;;;11.90;99.90;;;;;;5026689;28;20511;-82
2022/12/26 10:49:58;;;;;;;2.03;0.90;;;12.00;99.90;;;;;;5025813;28;20465;-81
2022/12/26 10:52:31;;;;;;;2.43;1.03;;;12.00;99.90;;;;;;5024908;28;21180;-81
2022/12/26 10:54:59;;;;;;;2.13;1.30;;;11.90;99.90;;;;;;5019788;28;20458;-81
2022/12/26 10:57:28;;;;;;;2.50;1.00;;;12.00;99.90;;;;;;5029907;28;20511;-81
2022/12/26 10:59:56;;;;;;;1.97;0.90;;;11.90;99.90;;;;;;5026750;28;20503;-80
2022/12/26 11:02:27;;;;;;;3.17;1.10;;;12.00;99.90;;;;;;5036253;28;20476;-81
2022/12/26 11:05:02;;;;;;;2.63;1.00;;;12.10;99.90;;;;;;5036596;28;20541;-80
2022/12/26 11:07:32;;;;;;;3.33;1.40;;;11.90;99.90;;;;;;5036587;28;20460;-80
2022/12/26 11:09:59;;;;;;;2.40;1.10;;;11.80;99.90;;;;;;5021973;28;20551;-81
2022/12/26 11:12:34;;;;;;;1.87;0.90;;;11.70;99.90;;;;;;5032534;28;20983;-81
2022/12/26 11:15:04;;;;;;;3.23;1.03;;;11.70;99.90;;;;;;5037360;28;20534;-81
2022/12/26 11:17:44;;;;;;;5.70;1.40;;;11.60;99.90;;;;;;5042138;28;20539;-79
2022/12/26 11:20:25;;;;;;;1.80;0.97;;;11.50;99.90;;;;;;5045325;28;20456;-81
2022/12/26 11:22:52;;;;;;;3.30;1.00;;;11.40;99.90;;;;;;5049325;28;20483;-82
2022/12/26 11:25:21;;;;;;;2.67;1.33;;;11.40;99.90;;;;;;5041118;28;20510;-82
2022/12/26 11:27:51;;;;;;;2.07;0.90;;;11.40;99.90;;;;;;5038868;28;20491;-79
2022/12/26 11:30:32;;;;;;;3.03;1.00;;;11.50;99.90;;;;;;5038998;28;20519;-82
2022/12/26 11:33:13;;;;;;;3.47;1.33;;;11.50;99.90;;;;;;5039932;28;20823;-82
2022/12/26 11:35:48;;;;;;;2.90;1.10;;;11.50;99.90;;;;;;5039300;28;20519;-82
2022/12/26 11:38:33;;;;;;;3.53;1.10;;;11.50;99.90;;;;;;5040908;28;20541;-82
2022/12/26 11:43:46;;;;;;;2.70;0.87;;;11.40;99.90;;;;;;5038170;28;20452;-82
2022/12/26 11:46:13;;;;;;;5.33;1.30;;;11.40;99.90;;;;;;5038439;28;20459;-83
2022/12/26 11:48:41;;;;;;;2.20;1.33;;;11.30;99.90;;;;;;5034940;28;20506;-82
2022/12/26 11:51:10;;;;;;;4.40;1.23;;;11.10;99.90;;;;;;5038045;28;20443;-82
2022/12/26 11:53:37;;;;;;;2.00;1.37;;;11.00;99.90;;;;;;5038202;28;20877;-82
2022/12/26 11:56:05;;;;;;;5.10;0.97;;;11.00;99.90;;;;;;5040188;28;20460;-82
2022/12/26 11:58:33;;;;;;;5.40;1.30;;;10.90;99.90;;;;;;5044498;28;20513;-80
2022/12/26 12:01:07;;;;;;;1.70;1.20;;;10.90;99.90;;;;;;5030011;28;20488;-82
2022/12/26 12:03:37;;;;;;;1.73;1.20;;;10.90;99.90;;;;;;5023288;28;20477;-83
2022/12/26 12:06:20;;;;;;;4.83;1.20;;;11.00;99.90;;;;;;5031699;28;20620;-82
2022/12/26 12:08:56;;;;;;;3.30;1.07;;;11.10;99.90;;;;;;5034731;28;20569;-82
2022/12/26 12:11:31;;;;;;;2.47;1.13;;;11.20;99.90;;;;;;5029866;28;20464;-82
2022/12/26 12:14:10;;;;;;;2.23;0.93;;;11.20;99.90;;;;;;5020402;28;21072;-82
2022/12/26 12:16:56;;;;;;;3.50;1.07;;;11.90;99.90;;;;;;5018511;28;20555;-82
2022/12/26 12:19:43;;;;;;;1.73;0.90;;;12.50;99.90;;;;;;5034753;28;20456;-82
2022/12/26 12:22:34;;;;;;;2.80;1.03;;;12.80;99.90;;;;;;5036660;28;20494;-82
2022/12/26 12:25:16;;;;;;;2.90;1.07;;;12.70;99.90;;;;;;5036949;28;20463;-82
2022/12/26 12:27:51;;;;;;;2.73;0.90;;;12.70;99.90;;;;;;5036716;28;20905;-83
2022/12/26 12:30:21;;;;;;;3.60;1.20;;;12.60;99.90;;;;;;5028621;28;20455;-83
2022/12/26 12:33:17;;;;;;;3.80;1.00;;;12.70;99.90;;;;;;5039191;28;20468;-83
2022/12/26 12:35:56;;;;;;;4.43;1.40;;;13.20;99.90;;;;;;5040838;28;20453;-83
2022/12/26 12:38:31;;;;;;;4.43;1.27;;;13.30;99.90;;;;;;5039891;28;20463;-83
2022/12/26 12:41:19;;;;;;;3.20;0.97;;;13.30;99.90;;;;;;5040846;28;20484;-84
2022/12/26 12:43:55;;;;;;;3.90;1.97;;;13.00;99.90;;;;;;5040638;28;21048;-83
2022/12/26 12:46:31;;;;;;;4.07;1.10;;;12.70;99.90;;;;;;5040687;28;20464;-83
2022/12/26 12:49:24;;;;;;;1.90;0.90;;;12.70;99.90;;;;;;5039692;28;20449;-83
2022/12/26 12:52:02;;;;;;;3.20;1.10;;;12.50;99.90;;;;;;5035483;28;20456;-83
2022/12/26 12:55:19;;;;;;;3.77;1.20;;;12.30;99.90;;;;;;5039829;28;20908;-82
2022/12/26 12:57:53;;;;;;;4.73;1.27;;;12.10;99.90;;;;;;5007171;28;20896;-82
2022/12/26 13:00:22;;;;;;;4.80;1.20;;;11.30;99.90;;;;;;5020432;28;20476;-82
2022/12/26 13:02:57;;;;;;;2.43;1.03;;;10.80;99.90;;;;;;5027235;28;20497;-82
2022/12/26 13:05:33;;;;;;;2.90;1.27;;;10.30;99.90;;;;;;5035351;28;20451;-82
2022/12/26 13:08:06;;;;;;;7.33;1.13;;;10.00;99.90;;;;;;5050621;28;20520;-81
2022/12/26 13:10:37;;;;;;;4.73;1.40;;;9.90;99.90;;;;;;5044532;28;20462;-82
2022/12/26 13:13:11;;;;;;;2.40;1.40;;;9.90;99.90;;;;;;5040468;28;20892;-81
2022/12/26 13:15:44;;;;;;;2.67;1.87;;;9.90;99.90;;;;;;5040348;28;20451;-82
2022/12/26 13:18:16;;;;;;;2.33;1.70;;;9.80;99.90;;;;;;5037564;28;20461;-82
2022/12/26 13:20:46;;;;;;;4.23;2.47;;;9.70;99.90;;;;;;5039449;28;20462;-82
2022/12/26 13:26:12;;;;;;;6.10;3.70;;;9.60;99.90;;;;;;5080036;22;20496;-81
2022/12/26 13:28:50;;;;;;;9.17;3.53;;;9.60;99.90;;;;;;5021566;28;20524;-82
2022/12/26 13:31:17;;;;;;;5.43;2.73;;;9.60;99.90;;;;;;5032470;28;20458;-81
2022/12/26 13:33:44;;;;;;;4.63;2.60;;;9.60;99.90;;;;;;5043110;28;20486;-81
2022/12/26 13:36:38;;;;;;;4.00;2.60;;;9.60;99.90;;;;;;5035752;28;20536;-81
2022/12/26 13:39:36;;;;;;;4.80;2.97;;;9.60;99.90;;;;;;5028295;28;20461;-82
2022/12/26 13:45:47;;;;;;;3.80;2.97;;;9.70;99.90;;;;;;5032348;28;20454;-79
2022/12/26 13:48:46;;;;;;;11.60;3.37;;;9.80;99.90;;;;;;5023911;28;20481;-82
2022/12/26 13:51:49;;;;;;;9.80;3.63;;;9.60;99.90;;;;;;5033334;28;20455;-81
2022/12/26 13:54:17;;;;;;;8.13;3.63;;;9.60;99.90;;;;;;5038462;28;20525;-81
2022/12/26 13:57:27;;;;;;;4.63;3.20;;;9.50;99.90;;;;;;5032369;28;20455;-82
2022/12/26 14:00:21;;;;;;;6.27;2.83;;;9.50;99.90;;;;;;5023876;28;20455;-82
2022/12/26 14:03:15;;;;;;;8.27;3.83;;;9.50;99.90;;;;;;5032217;28;20484;-84
2022/12/26 14:05:56;;;;;;;8.90;4.23;;;9.50;99.90;;;;;;5038269;28;20483;-83
2022/12/26 14:08:32;;;;;;;5.90;3.57;;;9.50;99.90;;;;;;5040678;28;20455;-83
2022/12/26 14:11:13;;;;;;;8.40;3.43;;;9.50;99.90;;;;;;5038322;28;20479;-83
2022/12/26 14:13:58;;;;;;;5.00;3.50;;;9.50;99.90;;;;;;5047647;28;20438;-83
2022/12/26 14:16:34;;;;;;;8.63;3.00;;;9.50;99.90;;;;;;5026509;28;20479;-83
2022/12/26 14:19:11;;;;;;;9.23;2.97;;;9.40;99.90;;;;;;5023959;28;20443;-83
2022/12/26 14:21:48;;;;;;;4.17;2.87;;;9.30;99.90;;;;;;5030719;28;20471;-83
2022/12/26 14:24:38;;;;;;;4.60;2.40;;;9.30;99.90;;;;;;5028823;28;20521;-83
2022/12/26 14:27:27;;;;;;;5.13;2.20;;;9.30;99.90;;;;;;5020399;28;20525;-83
2022/12/26 14:30:04;;;;;;;9.53;3.70;;;9.10;99.90;;;;;;5020364;28;20462;-83
2022/12/26 14:32:40;;;;;;;7.90;2.90;;;9.10;99.90;;;;;;5035830;28;20925;-83
2022/12/26 14:35:12;;;;;;;7.80;2.13;;;8.90;99.90;;;;;;5031505;28;20560;-83
2022/12/26 14:37:51;;;;;;;5.03;1.90;;;9.00;99.90;;;;;;5021448;28;20823;-83
2022/12/26 14:40:33;;;;;;;4.37;2.10;;;8.90;99.90;;;;;;5031325;28;20823;-82
2022/12/26 14:43:12;;;;;;;9.27;1.90;;;8.70;99.90;;;;;;5041994;28;20518;-82
2022/12/26 14:45:43;;;;;;;6.70;2.00;;;8.60;99.90;;;;;;5040252;28;20479;-83
2022/12/26 14:48:39;;;;;;;4.20;1.90;;;8.60;99.90;;;;;;5039117;28;20823;-83
2022/12/26 14:51:29;;;;;;;2.23;1.63;;;8.50;99.90;;;;;;5026705;28;20488;-84
2022/12/26 14:54:32;;;;;;;4.80;1.93;;;8.40;99.90;;;;;;5046214;28;20466;-83
2022/12/26 14:57:00;;;;;;;8.73;2.53;;;8.50;99.90;;;;;;5041817;28;20443;-84
2022/12/26 14:59:30;;;;;;;6.67;2.20;;;8.50;99.90;;;;;;5051999;28;20433;-83
2022/12/26 15:02:08;;;;;;;10.07;1.93;;;8.50;99.90;;;;;;5044571;28;20492;-84
2022/12/26 15:05:04;;;;;;;5.53;2.10;;;8.50;99.90;;;;;;5035181;28;20476;-82
2022/12/26 15:08:08;;;;;;;3.10;1.70;;;8.50;99.90;;;;;;5036075;28;20475;-81
2022/12/26 15:11:09;;;;;;;4.87;1.60;;;8.50;99.90;;;;;;5035705;28;20551;-83
2022/12/26 15:13:53;;;;;;;4.33;2.13;;;8.50;99.90;;;;;;5036973;28;20508;-81
2022/12/26 15:16:32;;;;;;;4.60;1.70;;;8.40;99.90;;;;;;5036090;28;20489;-82
2022/12/26 15:19:26;;;;;;;10.90;2.20;;;8.50;99.90;;;;;;5050001;28;20533;-81
2022/12/26 15:22:21;;;;;;;10.43;2.97;;;8.40;99.90;;;;;;5054259;28;20489;-81
2022/12/26 15:25:18;;;;;;;5.73;2.10;;;8.40;99.90;;;;;;5032260;28;20476;-82
2022/12/26 15:28:32;;;;;;;6.37;3.07;;;8.40;99.90;;;;;;5031161;28;20468;-83